sensor_id;sensor_type;location;lat;lon;timestamp;pressure;altitude;pressure_sealevel;temperature;humidity
11678;BME280;5895;41.950;24.372;2023-02-03T00:00:45;86667.38;;;-1.88;75.70
11678;BME280;5895;41.950;24.372;2023-02-03T00:03:12;86661.50;;;-1.89;75.17
11678;BME280;5895;41.950;24.372;2023-02-03T00:05:40;86671.19;;;-1.92;74.89
11678;BME280;5895;41.950;24.372;2023-02-03T00:08:09;86661.34;;;-1.95;74.79
11678;BME280;5895;41.950;24.372;2023-02-03T00:10:38;86668.81;;;-1.94;75.13
11678;BME280;5895;41.950;24.372;2023-02-03T00:13:06;86659.25;;;-1.92;75.54
11678;BME280;5895;41.950;24.372;2023-02-03T00:15:33;86654.34;;;-1.93;74.45
11678;BME280;5895;41.950;24.372;2023-02-03T00:18:00;86656.88;;;-1.93;75.30
11678;BME280;5895;41.950;24.372;2023-02-03T00:20:27;86651.97;;;-1.95;74.94
11678;BME280;5895;41.950;24.372;2023-02-03T00:23:02;86661.97;;;-1.93;75.18
11678;BME280;5895;41.950;24.372;2023-02-03T00:25:31;86666.44;;;-1.95;74.53
11678;BME280;5895;41.950;24.372;2023-02-03T00:27:58;86655.47;;;-1.96;74.84
11678;BME280;5895;41.950;24.372;2023-02-03T00:30:25;86657.38;;;-1.98;73.95
11678;BME280;5895;41.950;24.372;2023-02-03T00:32:52;86658.94;;;-1.97;74.22
11678;BME280;5895;41.950;24.372;2023-02-03T00:35:20;86662.63;;;-1.99;74.91
11678;BME280;5895;41.950;24.372;2023-02-03T00:37:50;86660.88;;;-1.99;74.88
11678;BME280;5895;41.950;24.372;2023-02-03T00:40:18;86669.13;;;-1.97;75.13
11678;BME280;5895;41.950;24.372;2023-02-03T00:42:47;86670.25;;;-1.99;75.13
11678;BME280;5895;41.950;24.372;2023-02-03T00:45:14;86671.53;;;-1.95;75.73
11678;BME280;5895;41.950;24.372;2023-02-03T00:47:41;86675.66;;;-1.94;75.71
11678;BME280;5895;41.950;24.372;2023-02-03T00:50:09;86668.81;;;-1.94;75.22
11678;BME280;5895;41.950;24.372;2023-02-03T00:52:37;86659.44;;;-1.93;75.50
11678;BME280;5895;41.950;24.372;2023-02-03T00:55:05;86662.59;;;-1.91;76.00
11678;BME280;5895;41.950;24.372;2023-02-03T00:57:32;86667.69;;;-1.91;75.82
11678;BME280;5895;41.950;24.372;2023-02-03T01:00:01;86663.41;;;-1.91;76.05
11678;BME280;5895;41.950;24.372;2023-02-03T01:02:28;86661.66;;;-1.90;76.33
11678;BME280;5895;41.950;24.372;2023-02-03T01:04:55;86663.25;;;-1.89;76.37
11678;BME280;5895;41.950;24.372;2023-02-03T01:07:22;86656.59;;;-1.90;76.35
11678;BME280;5895;41.950;24.372;2023-02-03T01:09:49;86656.59;;;-1.90;77.22
11678;BME280;5895;41.950;24.372;2023-02-03T01:12:16;86668.81;;;-1.94;77.19
11678;BME280;5895;41.950;24.372;2023-02-03T01:14:43;86656.88;;;-1.93;77.79
11678;BME280;5895;41.950;24.372;2023-02-03T01:17:12;86628.63;;;-2.15;78.24
11678;BME280;5895;41.950;24.372;2023-02-03T01:19:39;86641.97;;;-1.96;78.02
11678;BME280;5895;41.950;24.372;2023-02-03T01:22:06;86644.53;;;-1.96;78.24
11678;BME280;5895;41.950;24.372;2023-02-03T01:24:33;86652.44;;;-1.99;78.31
11678;BME280;5895;41.950;24.372;2023-02-03T01:27:00;86668.97;;;-2.03;78.69
11678;BME280;5895;41.950;24.372;2023-02-03T01:29:27;86672.47;;;-2.04;79.84
11678;BME280;5895;41.950;24.372;2023-02-03T01:31:54;86676.59;;;-2.11;80.64
11678;BME280;5895;41.950;24.372;2023-02-03T01:34:23;86684.22;;;-2.11;80.81
11678;BME280;5895;41.950;24.372;2023-02-03T01:36:50;86675.97;;;-2.14;81.39
11678;BME280;5895;41.950;24.372;2023-02-03T01:39:17;86670.09;;;-2.14;81.79
11678;BME280;5895;41.950;24.372;2023-02-03T01:41:44;86662.78;;;-2.17;82.68
11678;BME280;5895;41.950;24.372;2023-02-03T01:44:34;86660.09;;;-2.16;84.04
11678;BME280;5895;41.950;24.372;2023-02-03T01:47:02;86665.97;;;-2.15;83.10
11678;BME280;5895;41.950;24.372;2023-02-03T01:49:35;86655.00;;;-2.16;83.67
11678;BME280;5895;41.950;24.372;2023-02-03T01:52:03;86665.81;;;-2.22;83.86
11678;BME280;5895;41.950;24.372;2023-02-03T01:54:33;86664.84;;;-2.21;84.44
11678;BME280;5895;41.950;24.372;2023-02-03T01:57:03;86664.22;;;-2.23;84.82
11678;BME280;5895;41.950;24.372;2023-02-03T01:59:32;86653.91;;;-2.29;85.19
11678;BME280;5895;41.950;24.372;2023-02-03T02:02:00;86659.44;;;-2.26;85.96
11678;BME280;5895;41.950;24.372;2023-02-03T02:04:38;86665.16;;;-2.32;87.08
11678;BME280;5895;41.950;24.372;2023-02-03T02:07:08;86667.06;;;-2.34;87.92
11678;BME280;5895;41.950;24.372;2023-02-03T02:09:35;86661.69;;;-2.39;88.16
11678;BME280;5895;41.950;24.372;2023-02-03T02:12:03;86668.81;;;-2.43;88.17
11678;BME280;5895;41.950;24.372;2023-02-03T02:14:30;86680.09;;;-2.45;88.37
11678;BME280;5895;41.950;24.372;2023-02-03T02:17:04;86671.81;;;-2.47;89.05
11678;BME280;5895;41.950;24.372;2023-02-03T02:19:58;86661.97;;;-2.50;88.95
11678;BME280;5895;41.950;24.372;2023-02-03T02:22:41;86676.28;;;-2.57;89.22
11678;BME280;5895;41.950;24.372;2023-02-03T02:25:37;86692.13;;;-2.63;89.22
11678;BME280;5895;41.950;24.372;2023-02-03T02:28:38;86700.69;;;-2.64;89.07
11678;BME280;5895;41.950;24.372;2023-02-03T02:31:37;86697.19;;;-2.72;88.80
11678;BME280;5895;41.950;24.372;2023-02-03T02:34:15;86711.13;;;-2.76;88.13
11678;BME280;5895;41.950;24.372;2023-02-03T02:36:53;86697.31;;;-2.81;88.53
11678;BME280;5895;41.950;24.372;2023-02-03T02:39:32;86696.97;;;-2.86;87.82
11678;BME280;5895;41.950;24.372;2023-02-03T02:42:06;86701.88;;;-2.93;88.35
11678;BME280;5895;41.950;24.372;2023-02-03T02:44:36;86706.00;;;-3.00;87.72
11678;BME280;5895;41.950;24.372;2023-02-03T02:47:10;86711.97;;;-3.09;88.30
11678;BME280;5895;41.950;24.372;2023-02-03T02:49:44;86714.16;;;-3.23;88.45
11678;BME280;5895;41.950;24.372;2023-02-03T02:52:15;86706.25;;;-3.20;88.61
11678;BME280;5895;41.950;24.372;2023-02-03T02:54:47;86706.25;;;-3.20;89.18
11678;BME280;5895;41.950;24.372;2023-02-03T02:57:17;86706.38;;;-3.21;88.37
11678;BME280;5895;41.950;24.372;2023-02-03T02:59:47;86713.34;;;-3.23;88.63
11678;BME280;5895;41.950;24.372;2023-02-03T03:02:15;86715.09;;;-3.24;88.32
11678;BME280;5895;41.950;24.372;2023-02-03T03:04:44;86724.59;;;-3.26;88.52
11678;BME280;5895;41.950;24.372;2023-02-03T03:07:17;86715.38;;;-3.27;87.64
11678;BME280;5895;41.950;24.372;2023-02-03T03:09:47;86724.28;;;-3.31;88.23
11678;BME280;5895;41.950;24.372;2023-02-03T03:12:19;86705.84;;;-3.33;87.93
11678;BME280;5895;41.950;24.372;2023-02-03T03:14:49;86722.66;;;-3.32;87.64
11678;BME280;5895;41.950;24.372;2023-02-03T03:17:22;86730.44;;;-3.33;86.64
11678;BME280;5895;41.950;24.372;2023-02-03T03:19:54;86724.56;;;-3.34;85.94
11678;BME280;5895;41.950;24.372;2023-02-03T03:22:25;86734.56;;;-3.32;86.18
11678;BME280;5895;41.950;24.372;2023-02-03T03:24:59;86749.94;;;-3.34;86.56
11678;BME280;5895;41.950;24.372;2023-02-03T03:27:31;86738.19;;;-3.35;85.98
11678;BME280;5895;41.950;24.372;2023-02-03T03:30:04;86728.06;;;-3.35;85.83
11678;BME280;5895;41.950;24.372;2023-02-03T03:32:33;86714.72;;;-3.37;84.49
11678;BME280;5895;41.950;24.372;2023-02-03T03:35:00;86727.88;;;-3.41;84.30
11678;BME280;5895;41.950;24.372;2023-02-03T03:37:34;86719.94;;;-3.38;83.93
11678;BME280;5895;41.950;24.372;2023-02-03T03:40:07;86726.47;;;-3.36;83.89
11678;BME280;5895;41.950;24.372;2023-02-03T03:42:38;86715.97;;;-3.41;83.66
11678;BME280;5895;41.950;24.372;2023-02-03T03:45:09;86713.91;;;-3.37;83.02
11678;BME280;5895;41.950;24.372;2023-02-03T03:47:45;86713.44;;;-3.41;82.21
11678;BME280;5895;41.950;24.372;2023-02-03T03:50:17;86716.44;;;-3.37;81.94
11678;BME280;5895;41.950;24.372;2023-02-03T03:52:45;86696.94;;;-3.37;81.26
11678;BME280;5895;41.950;24.372;2023-02-03T03:55:15;86708.22;;;-3.39;81.01
11678;BME280;5895;41.950;24.372;2023-02-03T03:57:47;86708.22;;;-3.39;80.55
11678;BME280;5895;41.950;24.372;2023-02-03T04:00:20;86713.00;;;-3.36;80.84
11678;BME280;5895;41.950;24.372;2023-02-03T04:02:53;86708.38;;;-3.41;80.68
11678;BME280;5895;41.950;24.372;2023-02-03T04:05:22;86703.94;;;-3.39;79.89
11678;BME280;5895;41.950;24.372;2023-02-03T04:07:49;86688.38;;;-3.44;79.51
11678;BME280;5895;41.950;24.372;2023-02-03T04:10:24;86688.47;;;-3.54;79.71
11678;BME280;5895;41.950;24.372;2023-02-03T04:12:55;86703.13;;;-3.48;79.46
11678;BME280;5895;41.950;24.372;2023-02-03T04:15:22;86705.50;;;-3.46;79.15
11678;BME280;5895;41.950;24.372;2023-02-03T04:17:50;86709.09;;;-3.49;78.79
11678;BME280;5895;41.950;24.372;2023-02-03T04:20:19;86699.91;;;-3.50;79.19
11678;BME280;5895;41.950;24.372;2023-02-03T04:22:46;86713.69;;;-3.52;78.74
11678;BME280;5895;41.950;24.372;2023-02-03T04:25:13;86719.06;;;-3.55;78.67
11678;BME280;5895;41.950;24.372;2023-02-03T04:27:40;86721.31;;;-3.52;78.85
11678;BME280;5895;41.950;24.372;2023-02-03T04:30:09;86725.44;;;-3.51;78.65
11678;BME280;5895;41.950;24.372;2023-02-03T04:32:36;86728.91;;;-3.52;78.69
11678;BME280;5895;41.950;24.372;2023-02-03T04:35:06;86733.03;;;-3.51;78.86
11678;BME280;5895;41.950;24.372;2023-02-03T04:37:33;86733.03;;;-3.51;78.70
11678;BME280;5895;41.950;24.372;2023-02-03T04:40:01;86735.56;;;-3.51;78.98
11678;BME280;5895;41.950;24.372;2023-02-03T04:42:28;86731.28;;;-3.51;79.06
11678;BME280;5895;41.950;24.372;2023-02-03T04:44:55;86737.16;;;-3.50;79.50
11678;BME280;5895;41.950;24.372;2023-02-03T04:47:22;86738.75;;;-3.49;79.62
11678;BME280;5895;41.950;24.372;2023-02-03T04:49:49;86733.53;;;-3.48;79.84
11678;BME280;5895;41.950;24.372;2023-02-03T04:52:18;86733.03;;;-3.51;79.50
11678;BME280;5895;41.950;24.372;2023-02-03T04:54:45;86731.78;;;-3.47;79.96
11678;BME280;5895;41.950;24.372;2023-02-03T04:57:12;86731.13;;;-3.49;79.92
11678;BME280;5895;41.950;24.372;2023-02-03T04:59:39;86732.09;;;-3.50;79.70
11678;BME280;5895;41.950;24.372;2023-02-03T05:02:06;86735.56;;;-3.51;80.13
11678;BME280;5895;41.950;24.372;2023-02-03T05:04:33;86745.56;;;-3.50;79.52
11678;BME280;5895;41.950;24.372;2023-02-03T05:07:00;86743.69;;;-3.48;79.37
11678;BME280;5895;41.950;24.372;2023-02-03T05:09:29;86751.13;;;-3.46;79.14
11678;BME280;5895;41.950;24.372;2023-02-03T05:11:56;86748.44;;;-3.44;79.09
11678;BME280;5895;41.950;24.372;2023-02-03T05:14:23;86744.16;;;-3.44;79.22
11678;BME280;5895;41.950;24.372;2023-02-03T05:16:50;86757.50;;;-3.42;79.26
11678;BME280;5895;41.950;24.372;2023-02-03T05:19:17;86745.47;;;-3.40;78.87
11678;BME280;5895;41.950;24.372;2023-02-03T05:21:44;86748.63;;;-3.38;78.51
11678;BME280;5895;41.950;24.372;2023-02-03T05:24:11;86747.03;;;-3.39;78.00
11678;BME280;5895;41.950;24.372;2023-02-03T05:26:39;86761.97;;;-3.36;78.26
11678;BME280;5895;41.950;24.372;2023-02-03T05:29:07;86767.03;;;-3.36;77.67
11678;BME280;5895;41.950;24.372;2023-02-03T05:31:34;86762.59;;;-3.34;77.99
11678;BME280;5895;41.950;24.372;2023-02-03T05:34:01;86760.06;;;-3.34;78.20
11678;BME280;5895;41.950;24.372;2023-02-03T05:36:28;86772.59;;;-3.32;77.64
11678;BME280;5895;41.950;24.372;2023-02-03T05:38:55;86768.97;;;-3.30;77.64
11678;BME280;5895;41.950;24.372;2023-02-03T05:41:22;86773.91;;;-3.28;78.28
11678;BME280;5895;41.950;24.372;2023-02-03T05:44:08;86765.50;;;-3.29;78.67
11678;BME280;5895;41.950;24.372;2023-02-03T05:46:35;86783.88;;;-3.27;78.70
11678;BME280;5895;41.950;24.372;2023-02-03T05:49:02;86780.72;;;-3.29;78.85
11678;BME280;5895;41.950;24.372;2023-02-03T05:51:29;86791.50;;;-3.27;79.35
11678;BME280;5895;41.950;24.372;2023-02-03T05:53:56;86798.03;;;-3.24;79.31
11678;BME280;5895;41.950;24.372;2023-02-03T05:56:23;86810.56;;;-3.23;79.57
11678;BME280;5895;41.950;24.372;2023-02-03T05:58:50;86813.59;;;-3.19;78.62
11678;BME280;5895;41.950;24.372;2023-02-03T06:01:19;86813.13;;;-3.14;78.25
11678;BME280;5895;41.950;24.372;2023-02-03T06:03:47;86821.69;;;-3.15;77.65
11678;BME280;5895;41.950;24.372;2023-02-03T06:06:14;86819.16;;;-3.15;78.05
11678;BME280;5895;41.950;24.372;2023-02-03T06:08:41;86832.34;;;-3.12;77.45
11678;BME280;5895;41.950;24.372;2023-02-03T06:11:09;86838.84;;;-3.09;77.10
11678;BME280;5895;41.950;24.372;2023-02-03T06:13:37;86830.44;;;-3.10;75.89
11678;BME280;5895;41.950;24.372;2023-02-03T06:16:04;86844.72;;;-3.09;75.23
11678;BME280;5895;41.950;24.372;2023-02-03T06:18:32;86841.72;;;-3.04;75.55
11678;BME280;5895;41.950;24.372;2023-02-03T06:21:00;86845.91;;;-2.95;75.63
11678;BME280;5895;41.950;24.372;2023-02-03T06:23:27;86849.88;;;-2.93;75.36
11678;BME280;5895;41.950;24.372;2023-02-03T06:25:55;86845.34;;;-2.81;76.16
11678;BME280;5895;41.950;24.372;2023-02-03T06:28:24;86848.56;;;-2.71;76.12
11678;BME280;5895;41.950;24.372;2023-02-03T06:30:51;86850.66;;;-2.66;75.30
11678;BME280;5895;41.950;24.372;2023-02-03T06:33:18;86850.03;;;-2.68;74.87
11678;BME280;5895;41.950;24.372;2023-02-03T06:35:47;86847.16;;;-2.65;74.95
11678;BME280;5895;41.950;24.372;2023-02-03T06:38:14;86844.50;;;-2.63;74.69
11678;BME280;5895;41.950;24.372;2023-02-03T06:40:41;86844.50;;;-2.55;74.71
11678;BME280;5895;41.950;24.372;2023-02-03T06:43:08;86840.69;;;-2.59;74.78
11678;BME280;5895;41.950;24.372;2023-02-03T06:45:35;86837.56;;;-2.45;74.86
11678;BME280;5895;41.950;24.372;2023-02-03T06:48:02;86841.69;;;-2.44;73.67
11678;BME280;5895;41.950;24.372;2023-02-03T06:50:30;86838.53;;;-2.38;74.43
11678;BME280;5895;41.950;24.372;2023-02-03T06:52:58;86846.22;;;-2.30;73.44
11678;BME280;5895;41.950;24.372;2023-02-03T06:55:25;86847.47;;;-2.26;73.55
11678;BME280;5895;41.950;24.372;2023-02-03T06:57:52;86854.13;;;-2.25;73.27
11678;BME280;5895;41.950;24.372;2023-02-03T07:00:20;86852.94;;;-2.13;73.49
11678;BME280;5895;41.950;24.372;2023-02-03T07:02:53;86849.47;;;-1.95;73.37
11678;BME280;5895;41.950;24.372;2023-02-03T07:05:20;86841.22;;;-1.81;72.95
11678;BME280;5895;41.950;24.372;2023-02-03T07:07:47;86856.47;;;-1.81;72.22
11678;BME280;5895;41.950;24.372;2023-02-03T07:10:16;86864.41;;;-1.92;72.41
11678;BME280;5895;41.950;24.372;2023-02-03T07:12:44;86883.47;;;-1.96;73.15
11678;BME280;5895;41.950;24.372;2023-02-03T07:15:11;86883.47;;;-1.96;73.43
11678;BME280;5895;41.950;24.372;2023-02-03T07:17:38;86884.44;;;-1.89;73.83
11678;BME280;5895;41.950;24.372;2023-02-03T07:20:06;86881.31;;;-1.58;73.95
11678;BME280;5895;41.950;24.372;2023-02-03T07:22:33;86875.28;;;-1.49;73.34
11678;BME280;5895;41.950;24.372;2023-02-03T07:25:01;86904.22;;;-1.50;72.60
11678;BME280;5895;41.950;24.372;2023-02-03T07:27:29;86898.66;;;-1.54;73.12
11678;BME280;5895;41.950;24.372;2023-02-03T07:29:56;86891.50;;;-1.50;73.79
11678;BME280;5895;41.950;24.372;2023-02-03T07:32:23;86891.34;;;-1.33;73.74
11678;BME280;5895;41.950;24.372;2023-02-03T07:34:50;86891.81;;;-0.96;73.14
11678;BME280;5895;41.950;24.372;2023-02-03T07:37:17;86889.84;;;-0.45;71.39
11678;BME280;5895;41.950;24.372;2023-02-03T07:39:44;86895.53;;;-0.27;71.04
11678;BME280;5895;41.950;24.372;2023-02-03T07:42:11;86897.47;;;-0.37;69.90
11678;BME280;5895;41.950;24.372;2023-02-03T07:44:40;86904.19;;;-0.52;70.62
11678;BME280;5895;41.950;24.372;2023-02-03T07:47:07;86904.69;;;-0.65;71.67
11678;BME280;5895;41.950;24.372;2023-02-03T07:49:34;86909.66;;;-0.72;72.23
11678;BME280;5895;41.950;24.372;2023-02-03T07:52:01;86907.25;;;-0.73;72.93
11678;BME280;5895;41.950;24.372;2023-02-03T07:54:28;86914.75;;;-0.72;72.71
11678;BME280;5895;41.950;24.372;2023-02-03T07:56:55;86916.00;;;-0.76;72.90
11678;BME280;5895;41.950;24.372;2023-02-03T07:59:22;86914.75;;;-0.72;73.34
11678;BME280;5895;41.950;24.372;2023-02-03T08:01:51;86925.25;;;-0.83;73.49
11678;BME280;5895;41.950;24.372;2023-02-03T08:04:20;86920.47;;;-0.86;73.90
11678;BME280;5895;41.950;24.372;2023-02-03T08:06:47;86916.31;;;-0.79;74.14
11678;BME280;5895;41.950;24.372;2023-02-03T08:09:15;86921.91;;;-0.67;73.73
11678;BME280;5895;41.950;24.372;2023-02-03T08:11:42;86916.94;;;-0.44;73.98
11678;BME280;5895;41.950;24.372;2023-02-03T08:14:09;86915.38;;;-0.06;72.13
11678;BME280;5895;41.950;24.372;2023-02-03T08:16:36;86911.25;;;0.32;71.47
11678;BME280;5895;41.950;24.372;2023-02-03T08:19:05;86917.75;;;0.97;70.38
11678;BME280;5895;41.950;24.372;2023-02-03T08:21:32;86921.25;;;1.19;69.45
11678;BME280;5895;41.950;24.372;2023-02-03T08:23:59;86926.16;;;1.81;67.69
11678;BME280;5895;41.950;24.372;2023-02-03T08:26:26;86929.69;;;1.95;66.93
11678;BME280;5895;41.950;24.372;2023-02-03T08:28:53;86936.59;;;2.24;66.98
11678;BME280;5895;41.950;24.372;2023-02-03T08:31:20;86925.06;;;2.79;65.10
11678;BME280;5895;41.950;24.372;2023-02-03T08:33:47;86932.34;;;2.60;65.88
11678;BME280;5895;41.950;24.372;2023-02-03T08:36:16;86928.56;;;2.42;66.06
11678;BME280;5895;41.950;24.372;2023-02-03T08:38:43;86944.84;;;1.96;66.83
11678;BME280;5895;41.950;24.372;2023-02-03T08:41:12;86936.13;;;1.76;67.47
11678;BME280;5895;41.950;24.372;2023-02-03T08:43:40;86939.94;;;1.57;68.41
11678;BME280;5895;41.950;24.372;2023-02-03T08:46:09;86938.94;;;1.43;69.49
11678;BME280;5895;41.950;24.372;2023-02-03T08:48:37;86936.78;;;1.55;69.90
11678;BME280;5895;41.950;24.372;2023-02-03T08:51:09;86939.81;;;1.73;68.95
11678;BME280;5895;41.950;24.372;2023-02-03T08:53:38;86933.75;;;1.74;69.41
11678;BME280;5895;41.950;24.372;2023-02-03T08:56:06;86938.44;;;2.15;68.33
11678;BME280;5895;41.950;24.372;2023-02-03T08:58:33;86925.75;;;2.36;66.90
11678;BME280;5895;41.950;24.372;2023-02-03T09:01:08;86912.88;;;2.81;64.80
11678;BME280;5895;41.950;24.372;2023-02-03T09:03:35;86917.34;;;3.36;65.61
11678;BME280;5895;41.950;24.372;2023-02-03T09:06:03;86920.31;;;3.83;63.97
11678;BME280;5895;41.950;24.372;2023-02-03T09:08:31;86914.00;;;4.13;62.99
11678;BME280;5895;41.950;24.372;2023-02-03T09:11:00;86911.63;;;4.12;62.34
11678;BME280;5895;41.950;24.372;2023-02-03T09:13:27;86924.06;;;4.43;62.32
11678;BME280;5895;41.950;24.372;2023-02-03T09:15:54;86924.81;;;4.71;62.14
11678;BME280;5895;41.950;24.372;2023-02-03T09:18:21;86912.50;;;5.08;61.37
11678;BME280;5895;41.950;24.372;2023-02-03T09:20:48;86923.19;;;5.05;60.69
11678;BME280;5895;41.950;24.372;2023-02-03T09:23:15;86919.19;;;5.02;61.45
11678;BME280;5895;41.950;24.372;2023-02-03T09:25:42;86920.09;;;5.43;61.14
11678;BME280;5895;41.950;24.372;2023-02-03T09:28:10;86924.31;;;5.83;59.38
11678;BME280;5895;41.950;24.372;2023-02-03T09:30:37;86931.69;;;6.13;60.35
11678;BME280;5895;41.950;24.372;2023-02-03T09:33:05;86926.53;;;6.13;60.07
11678;BME280;5895;41.950;24.372;2023-02-03T09:35:32;86932.84;;;6.44;60.35
11678;BME280;5895;41.950;24.372;2023-02-03T09:37:59;86925.03;;;6.83;59.90
11678;BME280;5895;41.950;24.372;2023-02-03T09:40:29;86919.63;;;7.05;59.09
11678;BME280;5895;41.950;24.372;2023-02-03T09:43:12;86924.09;;;6.71;52.89
11678;BME280;5895;41.950;24.372;2023-02-03T09:45:46;86924.72;;;6.33;61.06
11678;BME280;5895;41.950;24.372;2023-02-03T09:48:17;86918.63;;;6.01;59.32
11678;BME280;5895;41.950;24.372;2023-02-03T09:50:45;86909.84;;;5.69;61.04
11678;BME280;5895;41.950;24.372;2023-02-03T09:53:23;86906.91;;;5.79;56.54
11678;BME280;5895;41.950;24.372;2023-02-03T09:55:54;86907.81;;;5.31;61.97
11678;BME280;5895;41.950;24.372;2023-02-03T09:58:22;86921.72;;;5.50;60.90
11678;BME280;5895;41.950;24.372;2023-02-03T10:00:51;86918.56;;;5.81;60.58
11678;BME280;5895;41.950;24.372;2023-02-03T10:03:26;86917.22;;;5.99;56.41
11678;BME280;5895;41.950;24.372;2023-02-03T10:06:15;86910.22;;;5.40;52.58
11678;BME280;5895;41.950;24.372;2023-02-03T10:08:55;86913.63;;;4.99;58.29
11678;BME280;5895;41.950;24.372;2023-02-03T10:11:35;86919.28;;;5.22;55.49
11678;BME280;5895;41.950;24.372;2023-02-03T10:14:17;86915.03;;;6.09;56.54
11678;BME280;5895;41.950;24.372;2023-02-03T10:16:57;86906.69;;;6.53;51.79
11678;BME280;5895;41.950;24.372;2023-02-03T10:19:37;86897.59;;;7.09;52.18
11678;BME280;5895;41.950;24.372;2023-02-03T10:22:10;86902.78;;;7.40;54.19
11678;BME280;5895;41.950;24.372;2023-02-03T10:24:43;86896.00;;;7.53;54.67
11678;BME280;5895;41.950;24.372;2023-02-03T10:27:16;86908.25;;;7.57;53.19
11678;BME280;5895;41.950;24.372;2023-02-03T10:29:47;86907.03;;;7.66;55.30
11678;BME280;5895;41.950;24.372;2023-02-03T10:32:16;86908.28;;;7.19;59.02
11678;BME280;5895;41.950;24.372;2023-02-03T10:34:46;86913.38;;;6.74;57.54
11678;BME280;5895;41.950;24.372;2023-02-03T10:37:21;86911.47;;;6.10;54.18
11678;BME280;5895;41.950;24.372;2023-02-03T10:39:51;86919.53;;;5.54;59.68
11678;BME280;5895;41.950;24.372;2023-02-03T10:42:19;86901.38;;;6.02;60.69
11678;BME280;5895;41.950;24.372;2023-02-03T10:44:52;86895.56;;;6.59;53.30
11678;BME280;5895;41.950;24.372;2023-02-03T10:47:24;86889.47;;;7.05;56.53
11678;BME280;5895;41.950;24.372;2023-02-03T10:49:54;86901.06;;;7.66;56.06
11678;BME280;5895;41.950;24.372;2023-02-03T10:52:29;86889.38;;;8.20;52.35
11678;BME280;5895;41.950;24.372;2023-02-03T10:54:56;86900.31;;;7.90;57.05
11678;BME280;5895;41.950;24.372;2023-02-03T10:57:27;86902.78;;;7.40;55.76
11678;BME280;5895;41.950;24.372;2023-02-03T11:00:06;86895.66;;;7.42;51.04
11678;BME280;5895;41.950;24.372;2023-02-03T11:02:33;86901.53;;;8.19;57.80
11678;BME280;5895;41.950;24.372;2023-02-03T11:05:18;86903.25;;;8.51;48.76
11678;BME280;5895;41.950;24.372;2023-02-03T11:07:46;86916.28;;;7.81;57.73
11678;BME280;5895;41.950;24.372;2023-02-03T11:10:31;86910.91;;;7.82;49.68
11678;BME280;5895;41.950;24.372;2023-02-03T11:13:11;86901.91;;;7.22;49.49
11678;BME280;5895;41.950;24.372;2023-02-03T11:15:50;86909.59;;;7.28;52.44
11678;BME280;5895;41.950;24.372;2023-02-03T11:18:45;86907.31;;;7.83;45.91
11678;BME280;5895;41.950;24.372;2023-02-03T11:21:15;86906.72;;;8.13;56.12
11678;BME280;5895;41.950;24.372;2023-02-03T11:23:47;86909.59;;;8.55;54.15
11678;BME280;5895;41.950;24.372;2023-02-03T11:26:18;86920.44;;;9.07;52.87
11678;BME280;5895;41.950;24.372;2023-02-03T11:28:49;86917.72;;;9.38;54.52
11678;BME280;5895;41.950;24.372;2023-02-03T11:31:22;86921.97;;;9.63;50.82
11678;BME280;5895;41.950;24.372;2023-02-03T11:33:53;86910.53;;;10.00;51.92
11678;BME280;5895;41.950;24.372;2023-02-03T11:36:20;86916.53;;;10.13;55.07
11678;BME280;5895;41.950;24.372;2023-02-03T11:38:48;86902.31;;;10.45;55.03
11678;BME280;5895;41.950;24.372;2023-02-03T11:41:16;86891.59;;;10.77;53.43
11678;BME280;5895;41.950;24.372;2023-02-03T11:43:44;86884.28;;;10.74;54.60
11678;BME280;5895;41.950;24.372;2023-02-03T11:46:11;86885.06;;;10.86;55.24
11678;BME280;5895;41.950;24.372;2023-02-03T11:48:51;86888.91;;;10.95;46.95
11678;BME280;5895;41.950;24.372;2023-02-03T11:51:31;86883.25;;;10.98;48.55
11678;BME280;5895;41.950;24.372;2023-02-03T11:54:11;86879.19;;;11.02;50.39
11678;BME280;5895;41.950;24.372;2023-02-03T11:56:59;86865.03;;;11.22;45.91
11678;BME280;5895;41.950;24.372;2023-02-03T11:59:45;86865.63;;;11.24;45.92
11678;BME280;5895;41.950;24.372;2023-02-03T12:05:33;86850.78;;;10.96;43.87
11678;BME280;5895;41.950;24.372;2023-02-03T12:08:11;86840.69;;;11.11;47.10
11678;BME280;5895;41.950;24.372;2023-02-03T12:10:51;86832.78;;;11.18;49.31
11678;BME280;5895;41.950;24.372;2023-02-03T12:13:35;86832.69;;;11.53;46.46
11678;BME280;5895;41.950;24.372;2023-02-03T12:16:19;86838.88;;;11.23;47.41
11678;BME280;5895;41.950;24.372;2023-02-03T12:18:57;86835.22;;;11.36;46.71
11678;BME280;5895;41.950;24.372;2023-02-03T12:21:42;86836.84;;;11.54;44.88
11678;BME280;5895;41.950;24.372;2023-02-03T12:24:16;86833.47;;;11.53;47.84
11678;BME280;5895;41.950;24.372;2023-02-03T12:26:52;86834.09;;;11.60;50.89
11678;BME280;5895;41.950;24.372;2023-02-03T12:29:25;86834.38;;;11.47;51.19
11678;BME280;5895;41.950;24.372;2023-02-03T12:32:01;86837.88;;;11.53;47.18
11678;BME280;5895;41.950;24.372;2023-02-03T12:34:33;86821.50;;;11.52;48.48
11678;BME280;5895;41.950;24.372;2023-02-03T12:37:07;86833.06;;;11.73;49.77
11678;BME280;5895;41.950;24.372;2023-02-03T12:39:40;86832.50;;;11.71;49.17
11678;BME280;5895;41.950;24.372;2023-02-03T12:42:14;86829.28;;;11.81;49.53
11678;BME280;5895;41.950;24.372;2023-02-03T12:44:47;86837.44;;;11.73;49.28
11678;BME280;5895;41.950;24.372;2023-02-03T12:47:21;86838.56;;;11.77;46.96
11678;BME280;5895;41.950;24.372;2023-02-03T12:49:55;86834.94;;;11.49;52.22
11678;BME280;5895;41.950;24.372;2023-02-03T12:52:29;86832.13;;;11.39;47.60
11678;BME280;5895;41.950;24.372;2023-02-03T12:55:05;86832.41;;;11.26;48.03
11678;BME280;5895;41.950;24.372;2023-02-03T12:57:38;86839.22;;;11.03;50.96
11678;BME280;5895;41.950;24.372;2023-02-03T13:00:20;86842.97;;;11.07;45.23
11678;BME280;5895;41.950;24.372;2023-02-03T13:03:08;86833.94;;;10.98;43.30
11678;BME280;5895;41.950;24.372;2023-02-03T13:05:41;86834.31;;;10.43;52.02
11678;BME280;5895;41.950;24.372;2023-02-03T13:08:16;86847.09;;;10.15;49.01
11678;BME280;5895;41.950;24.372;2023-02-03T13:10:50;86842.81;;;10.08;51.09
11678;BME280;5895;41.950;24.372;2023-02-03T13:13:27;86846.59;;;9.52;46.00
11678;BME280;5895;41.950;24.372;2023-02-03T13:15:55;86840.63;;;9.22;57.18
11678;BME280;5895;41.950;24.372;2023-02-03T13:18:25;86839.47;;;9.18;54.37
11678;BME280;5895;41.950;24.372;2023-02-03T13:20:55;86839.88;;;9.33;56.89
11678;BME280;5895;41.950;24.372;2023-02-03T13:23:24;86841.25;;;9.66;54.46